sensor_id;sensor_type;location;lat;lon;timestamp;pressure;altitude;pressure_sealevel;temperature;humidity
45357;BME280;31092;51.924;21.448;2022-08-03T00:01:41;100471.25;;;15.98;100.00
45357;BME280;31092;51.924;21.448;2022-08-03T00:04:08;100469.56;;;15.97;100.00
45357;BME280;31092;51.924;21.448;2022-08-03T00:06:34;100491.63;;;16.09;100.00
45357;BME280;31092;51.924;21.448;2022-08-03T00:09:00;100458.19;;;15.87;100.00
45357;BME280;31092;51.924;21.448;2022-08-03T00:11:26;100538.25;;;16.34;100.00
45357;BME280;31092;51.924;21.448;2022-08-03T00:13:52;100528.34;;;16.26;100.00
45357;BME280;31092;51.924;21.448;2022-08-03T00:16:18;100471.78;;;15.87;100.00
45357;BME280;31092;51.924;21.448;2022-08-03T00:18:44;100492.72;;;15.93;100.00
45357;BME280;31092;51.924;21.448;2022-08-03T00:21:09;100542.50;;;16.21;100.00
45357;BME280;31092;51.924;21.448;2022-08-03T00:23:35;100569.38;;;16.31;100.00
45357;BME280;31092;51.924;21.448;2022-08-03T00:26:01;100491.81;;;15.86;100.00
45357;BME280;31092;51.924;21.448;2022-08-03T00:28:27;100492.63;;;15.79;100.00
45357;BME280;31092;51.924;21.448;2022-08-03T00:30:53;100573.84;;;16.17;100.00
45357;BME280;31092;51.924;21.448;2022-08-03T00:33:20;100490.72;;;15.65;100.00
45357;BME280;31092;51.924;21.448;2022-08-03T00:35:46;100559.03;;;15.98;100.00
45357;BME280;31092;51.924;21.448;2022-08-03T00:38:12;100544.38;;;15.78;100.00
45357;BME280;31092;51.924;21.448;2022-08-03T00:40:38;100479.38;;;15.40;100.00
45357;BME280;31092;51.924;21.448;2022-08-03T00:43:05;100489.78;;;15.37;100.00
45357;BME280;31092;51.924;21.448;2022-08-03T00:45:35;100564.63;;;15.75;100.00
45357;BME280;31092;51.924;21.448;2022-08-03T00:48:03;100574.00;;;15.73;100.00
45357;BME280;31092;51.924;21.448;2022-08-03T00:50:31;100512.47;;;15.29;100.00
45357;BME280;31092;51.924;21.448;2022-08-03T00:53:00;100572.41;;;15.64;100.00
45357;BME280;31092;51.924;21.448;2022-08-03T00:55:26;100487.91;;;15.16;100.00
45357;BME280;31092;51.924;21.448;2022-08-03T00:57:52;100565.59;;;15.53;100.00
45357;BME280;31092;51.924;21.448;2022-08-03T01:00:23;100577.56;;;15.59;100.00
45357;BME280;31092;51.924;21.448;2022-08-03T01:02:49;100506.00;;;15.15;100.00
45357;BME280;31092;51.924;21.448;2022-08-03T01:05:16;100561.28;;;15.44;100.00
45357;BME280;31092;51.924;21.448;2022-08-03T01:10:31;100537.00;;;15.06;100.00
45357;BME280;31092;51.924;21.448;2022-08-03T01:15:42;100565.53;;;15.17;100.00
45357;BME280;31092;51.924;21.448;2022-08-03T01:18:19;100475.41;;;14.55;100.00
45357;BME280;31092;51.924;21.448;2022-08-03T01:20:48;100481.44;;;14.57;100.00
45357;BME280;31092;51.924;21.448;2022-08-03T01:32:22;100487.03;;;14.41;100.00
45357;BME280;31092;51.924;21.448;2022-08-03T01:34:56;100547.56;;;14.71;100.00
45357;BME280;31092;51.924;21.448;2022-08-03T01:37:46;100574.56;;;14.79;100.00
45357;BME280;31092;51.924;21.448;2022-08-03T01:40:15;100567.22;;;14.73;100.00
45357;BME280;31092;51.924;21.448;2022-08-03T01:42:43;100485.31;;;14.25;100.00
45357;BME280;31092;51.924;21.448;2022-08-03T01:45:12;100561.59;;;14.75;100.00
45357;BME280;31092;51.924;21.448;2022-08-03T01:47:39;100544.34;;;14.53;100.00
45357;BME280;31092;51.924;21.448;2022-08-03T01:50:06;100554.00;;;14.55;100.00
45357;BME280;31092;51.924;21.448;2022-08-03T01:52:33;100556.72;;;14.47;100.00
45357;BME280;31092;51.924;21.448;2022-08-03T01:55:03;100556.41;;;14.50;100.00
45357;BME280;31092;51.924;21.448;2022-08-03T01:57:32;100516.69;;;14.20;100.00
45357;BME280;31092;51.924;21.448;2022-08-03T02:00:00;100499.19;;;14.07;100.00
45357;BME280;31092;51.924;21.448;2022-08-03T02:02:26;100492.81;;;14.00;100.00
45357;BME280;31092;51.924;21.448;2022-08-03T02:04:54;100556.63;;;14.41;100.00
45357;BME280;31092;51.924;21.448;2022-08-03T02:07:22;100543.16;;;14.32;100.00
45357;BME280;31092;51.924;21.448;2022-08-03T02:09:50;100490.78;;;14.02;100.00
45357;BME280;31092;51.924;21.448;2022-08-03T02:12:17;100552.44;;;14.38;100.00
45357;BME280;31092;51.924;21.448;2022-08-03T02:14:45;100541.63;;;14.30;100.00
45357;BME280;31092;51.924;21.448;2022-08-03T02:17:13;100549.50;;;14.25;100.00
45357;BME280;31092;51.924;21.448;2022-08-03T02:19:43;100537.34;;;14.21;100.00
45357;BME280;31092;51.924;21.448;2022-08-03T02:22:11;100529.66;;;14.09;100.00
45357;BME280;31092;51.924;21.448;2022-08-03T02:24:37;100528.13;;;14.07;100.00
45357;BME280;31092;51.924;21.448;2022-08-03T02:27:09;100486.03;;;13.81;100.00
45357;BME280;31092;51.924;21.448;2022-08-03T02:29:38;100549.38;;;14.18;100.00
45357;BME280;31092;51.924;21.448;2022-08-03T02:32:11;100561.22;;;14.17;100.00
45357;BME280;31092;51.924;21.448;2022-08-03T02:34:39;100486.97;;;13.65;100.00
45357;BME280;31092;51.924;21.448;2022-08-03T02:37:07;100541.56;;;14.00;100.00
45357;BME280;31092;51.924;21.448;2022-08-03T02:39:35;100550.22;;;13.96;100.00
45357;BME280;31092;51.924;21.448;2022-08-03T02:42:02;100546.34;;;13.90;100.00
45357;BME280;31092;51.924;21.448;2022-08-03T02:44:30;100493.47;;;13.56;100.00
45357;BME280;31092;51.924;21.448;2022-08-03T02:47:02;100534.28;;;13.78;100.00
45357;BME280;31092;51.924;21.448;2022-08-03T02:49:30;100488.00;;;13.41;100.00
45357;BME280;31092;51.924;21.448;2022-08-03T02:51:57;100479.38;;;13.38;100.00
45357;BME280;31092;51.924;21.448;2022-08-03T02:54:25;100555.75;;;13.79;100.00
45357;BME280;31092;51.924;21.448;2022-08-03T02:56:53;100552.19;;;13.79;100.00
45357;BME280;31092;51.924;21.448;2022-08-03T02:59:20;100563.22;;;13.77;100.00
45357;BME280;31092;51.924;21.448;2022-08-03T03:01:47;100520.88;;;13.53;100.00
45357;BME280;31092;51.924;21.448;2022-08-03T03:04:13;100548.88;;;13.69;100.00
45357;BME280;31092;51.924;21.448;2022-08-03T03:06:40;100548.34;;;13.73;100.00
45357;BME280;31092;51.924;21.448;2022-08-03T03:09:07;100510.78;;;13.47;100.00
45357;BME280;31092;51.924;21.448;2022-08-03T03:11:38;100571.81;;;13.81;100.00
45357;BME280;31092;51.924;21.448;2022-08-03T03:14:06;100563.72;;;13.73;100.00
45357;BME280;31092;51.924;21.448;2022-08-03T03:16:32;100521.78;;;13.46;100.00
45357;BME280;31092;51.924;21.448;2022-08-03T03:18:58;100508.28;;;13.37;100.00
45357;BME280;31092;51.924;21.448;2022-08-03T03:21:26;100577.72;;;13.84;100.00
45357;BME280;31092;51.924;21.448;2022-08-03T03:23:53;100511.31;;;13.43;100.00
45357;BME280;31092;51.924;21.448;2022-08-03T03:26:19;100573.97;;;13.85;100.00
45357;BME280;31092;51.924;21.448;2022-08-03T03:28:45;100531.78;;;13.68;100.00
45357;BME280;31092;51.924;21.448;2022-08-03T03:31:11;100570.03;;;13.96;100.00
45357;BME280;31092;51.924;21.448;2022-08-03T03:33:37;100549.91;;;13.90;100.00
45357;BME280;31092;51.924;21.448;2022-08-03T03:36:04;100572.97;;;14.09;100.00
45357;BME280;31092;51.924;21.448;2022-08-03T03:38:31;100581.59;;;14.13;100.00
45357;BME280;31092;51.924;21.448;2022-08-03T03:40:57;100587.91;;;14.28;100.00
45357;BME280;31092;51.924;21.448;2022-08-03T03:43:23;100583.25;;;14.37;100.00
45357;BME280;31092;51.924;21.448;2022-08-03T03:45:49;100589.81;;;14.43;100.00
45357;BME280;31092;51.924;21.448;2022-08-03T03:48:26;100535.94;;;14.25;100.00
45357;BME280;31092;51.924;21.448;2022-08-03T03:50:52;100584.56;;;14.64;100.00
45357;BME280;31092;51.924;21.448;2022-08-03T03:53:18;100583.00;;;14.70;100.00
45357;BME280;31092;51.924;21.448;2022-08-03T03:55:44;100576.66;;;14.77;100.00
45357;BME280;31092;51.924;21.448;2022-08-03T03:58:12;100530.91;;;14.59;100.00
45357;BME280;31092;51.924;21.448;2022-08-03T04:00:38;100581.81;;;15.02;100.00
45357;BME280;31092;51.924;21.448;2022-08-03T04:03:03;100519.41;;;14.72;100.00
45357;BME280;31092;51.924;21.448;2022-08-03T04:05:29;100597.41;;;15.29;100.00
45357;BME280;31092;51.924;21.448;2022-08-03T04:08:15;100597.97;;;15.40;100.00
45357;BME280;31092;51.924;21.448;2022-08-03T04:11:17;100521.69;;;14.98;100.00
45357;BME280;31092;51.924;21.448;2022-08-03T04:14:02;100597.97;;;15.54;100.00
45357;BME280;31092;51.924;21.448;2022-08-03T04:16:34;100587.84;;;15.63;100.00
45357;BME280;31092;51.924;21.448;2022-08-03T04:19:25;100579.16;;;15.68;100.00
45357;BME280;31092;51.924;21.448;2022-08-03T04:21:52;100536.38;;;15.55;100.00
45357;BME280;31092;51.924;21.448;2022-08-03T04:24:19;100591.25;;;16.01;100.00
45357;BME280;31092;51.924;21.448;2022-08-03T04:26:48;100596.34;;;16.11;100.00
45357;BME280;31092;51.924;21.448;2022-08-03T04:29:15;100588.84;;;16.13;100.00
45357;BME280;31092;51.924;21.448;2022-08-03T04:31:44;100543.69;;;15.91;100.00
45357;BME280;31092;51.924;21.448;2022-08-03T04:34:11;100585.63;;;16.24;100.00
45357;BME280;31092;51.924;21.448;2022-08-03T04:36:41;100603.56;;;16.40;100.00
45357;BME280;31092;51.924;21.448;2022-08-03T04:39:26;100588.63;;;16.36;100.00
45357;BME280;31092;51.924;21.448;2022-08-03T04:41:56;100598.34;;;16.45;100.00
45357;BME280;31092;51.924;21.448;2022-08-03T04:44:23;100581.00;;;16.46;100.00
45357;BME280;31092;51.924;21.448;2022-08-03T04:47:34;100597.03;;;16.63;100.00
45357;BME280;31092;51.924;21.448;2022-08-03T04:49:42;100547.91;;;16.43;100.00
45357;BME280;31092;51.924;21.448;2022-08-03T04:52:08;100606.25;;;16.83;100.00
45357;BME280;31092;51.924;21.448;2022-08-03T04:54:39;100608.59;;;16.93;100.00
45357;BME280;31092;51.924;21.448;2022-08-03T04:57:05;100604.91;;;17.01;100.00
45357;BME280;31092;51.924;21.448;2022-08-03T04:59:30;100589.47;;;17.08;100.00
45357;BME280;31092;51.924;21.448;2022-08-03T05:01:57;100608.16;;;17.24;100.00
45357;BME280;31092;51.924;21.448;2022-08-03T05:04:23;100586.44;;;17.31;100.00
45357;BME280;31092;51.924;21.448;2022-08-03T05:06:48;100612.50;;;17.53;100.00
45357;BME280;31092;51.924;21.448;2022-08-03T05:09:14;100610.50;;;17.68;100.00
45357;BME280;31092;51.924;21.448;2022-08-03T05:11:40;100553.00;;;17.50;100.00
45357;BME280;31092;51.924;21.448;2022-08-03T05:14:05;100572.38;;;17.75;100.00
45357;BME280;31092;51.924;21.448;2022-08-03T05:16:31;100567.22;;;17.93;100.00
45357;BME280;31092;51.924;21.448;2022-08-03T05:18:56;100605.25;;;18.35;100.00
45357;BME280;31092;51.924;21.448;2022-08-03T05:21:22;100612.63;;;18.61;100.00
45357;BME280;31092;51.924;21.448;2022-08-03T05:23:48;100611.81;;;18.80;100.00
45357;BME280;31092;51.924;21.448;2022-08-03T05:26:13;100610.31;;;19.04;100.00
45357;BME280;31092;51.924;21.448;2022-08-03T05:28:39;100617.59;;;19.30;100.00
45357;BME280;31092;51.924;21.448;2022-08-03T05:31:07;100621.72;;;19.53;100.00
45357;BME280;31092;51.924;21.448;2022-08-03T05:33:39;100554.13;;;19.35;100.00
45357;BME280;31092;51.924;21.448;2022-08-03T05:36:07;100554.28;;;19.53;100.00
45357;BME280;31092;51.924;21.448;2022-08-03T05:38:33;100534.91;;;19.68;100.00
45357;BME280;31092;51.924;21.448;2022-08-03T05:40:58;100614.44;;;20.30;100.00
45357;BME280;31092;51.924;21.448;2022-08-03T05:43:27;100610.13;;;20.47;100.00
45357;BME280;31092;51.924;21.448;2022-08-03T05:45:53;100613.44;;;20.56;100.00
45357;BME280;31092;51.924;21.448;2022-08-03T05:48:19;100575.47;;;20.34;100.00
45357;BME280;31092;51.924;21.448;2022-08-03T05:50:44;100615.09;;;20.64;100.00
45357;BME280;31092;51.924;21.448;2022-08-03T05:53:10;100617.81;;;20.64;100.00
45357;BME280;31092;51.924;21.448;2022-08-03T05:55:36;100563.69;;;20.34;100.00
45357;BME280;31092;51.924;21.448;2022-08-03T05:58:01;100563.66;;;20.41;100.00
45357;BME280;31092;51.924;21.448;2022-08-03T06:00:28;100565.41;;;20.35;100.00
45357;BME280;31092;51.924;21.448;2022-08-03T06:03:15;100624.91;;;20.71;100.00
45357;BME280;31092;51.924;21.448;2022-08-03T06:05:41;100546.91;;;20.30;100.00
45357;BME280;31092;51.924;21.448;2022-08-03T06:08:07;100559.94;;;20.35;100.00
45357;BME280;31092;51.924;21.448;2022-08-03T06:10:32;100557.44;;;20.27;100.00
45357;BME280;31092;51.924;21.448;2022-08-03T06:12:58;100580.91;;;20.41;100.00
45357;BME280;31092;51.924;21.448;2022-08-03T06:15:24;100615.69;;;20.66;100.00
45357;BME280;31092;51.924;21.448;2022-08-03T06:17:50;100619.69;;;20.63;100.00
45357;BME280;31092;51.924;21.448;2022-08-03T06:20:21;100626.81;;;20.71;100.00
45357;BME280;31092;51.924;21.448;2022-08-03T06:22:47;100587.81;;;20.50;100.00
45357;BME280;31092;51.924;21.448;2022-08-03T06:25:13;100618.91;;;20.81;100.00
45357;BME280;31092;51.924;21.448;2022-08-03T06:27:55;100605.16;;;20.88;100.00
45357;BME280;31092;51.924;21.448;2022-08-03T06:30:21;100569.97;;;20.91;100.00
45357;BME280;31092;51.924;21.448;2022-08-03T06:32:46;100578.44;;;21.26;100.00
45357;BME280;31092;51.924;21.448;2022-08-03T06:35:12;100566.75;;;21.38;100.00
45357;BME280;31092;51.924;21.448;2022-08-03T06:37:45;100611.72;;;21.85;100.00
45357;BME280;31092;51.924;21.448;2022-08-03T06:40:13;100562.06;;;21.75;100.00
45357;BME280;31092;51.924;21.448;2022-08-03T06:42:40;100615.47;;;22.21;100.00
45357;BME280;31092;51.924;21.448;2022-08-03T06:45:06;100598.25;;;22.14;100.00
45357;BME280;31092;51.924;21.448;2022-08-03T06:47:34;100604.19;;;22.11;100.00
45357;BME280;31092;51.924;21.448;2022-08-03T06:50:00;100561.28;;;21.86;100.00
45357;BME280;31092;51.924;21.448;2022-08-03T06:52:25;100597.13;;;22.03;100.00
45357;BME280;31092;51.924;21.448;2022-08-03T06:54:51;100622.53;;;22.29;100.00
45357;BME280;31092;51.924;21.448;2022-08-03T06:57:17;100552.88;;;21.99;100.00
45357;BME280;31092;51.924;21.448;2022-08-03T06:59:43;100555.00;;;21.97;100.00
45357;BME280;31092;51.924;21.448;2022-08-03T07:02:09;100554.97;;;21.86;100.00
45357;BME280;31092;51.924;21.448;2022-08-03T07:04:36;100591.94;;;21.95;100.00
45357;BME280;31092;51.924;21.448;2022-08-03T07:07:01;100570.47;;;21.62;100.00
45357;BME280;31092;51.924;21.448;2022-08-03T07:09:27;100599.34;;;21.64;100.00
45357;BME280;31092;51.924;21.448;2022-08-03T07:11:54;100545.25;;;21.16;100.00
45357;BME280;31092;51.924;21.448;2022-08-03T07:14:21;100607.94;;;21.49;100.00
45357;BME280;31092;51.924;21.448;2022-08-03T07:16:47;100602.22;;;21.69;100.00
45357;BME280;31092;51.924;21.448;2022-08-03T07:19:13;100591.13;;;21.94;100.00
45357;BME280;31092;51.924;21.448;2022-08-03T07:21:38;100597.75;;;22.35;100.00
45357;BME280;31092;51.924;21.448;2022-08-03T07:24:04;100597.91;;;22.64;100.00
45357;BME280;31092;51.924;21.448;2022-08-03T07:26:30;100599.03;;;22.98;100.00
45357;BME280;31092;51.924;21.448;2022-08-03T07:28:55;100556.28;;;23.02;100.00
45357;BME280;31092;51.924;21.448;2022-08-03T07:31:21;100607.56;;;23.60;100.00
45357;BME280;31092;51.924;21.448;2022-08-03T07:33:46;100558.69;;;23.51;100.00
45357;BME280;31092;51.924;21.448;2022-08-03T07:36:12;100604.03;;;23.88;100.00
45357;BME280;31092;51.924;21.448;2022-08-03T07:38:37;100612.88;;;23.90;100.00
45357;BME280;31092;51.924;21.448;2022-08-03T07:41:03;100606.78;;;23.88;100.00
45357;BME280;31092;51.924;21.448;2022-08-03T07:43:29;100597.09;;;23.86;100.00
45357;BME280;31092;51.924;21.448;2022-08-03T07:45:54;100557.22;;;23.72;100.00
45357;BME280;31092;51.924;21.448;2022-08-03T07:48:20;100551.59;;;23.66;100.00
45357;BME280;31092;51.924;21.448;2022-08-03T07:50:45;100567.75;;;23.51;100.00
45357;BME280;31092;51.924;21.448;2022-08-03T07:53:11;100578.66;;;23.46;100.00
45357;BME280;31092;51.924;21.448;2022-08-03T07:55:37;100563.66;;;23.25;100.00
45357;BME280;31092;51.924;21.448;2022-08-03T07:58:07;100552.69;;;23.13;100.00
45357;BME280;31092;51.924;21.448;2022-08-03T08:00:42;100605.94;;;23.36;100.00
45357;BME280;31092;51.924;21.448;2022-08-03T08:03:09;100623.88;;;23.27;100.00
45357;BME280;31092;51.924;21.448;2022-08-03T08:05:35;100579.69;;;22.93;100.00
45357;BME280;31092;51.924;21.448;2022-08-03T08:08:01;100560.44;;;22.81;100.00
45357;BME280;31092;51.924;21.448;2022-08-03T08:10:28;100624.72;;;23.15;100.00
45357;BME280;31092;51.924;21.448;2022-08-03T08:12:54;100623.66;;;23.16;100.00
45357;BME280;31092;51.924;21.448;2022-08-03T08:15:19;100566.75;;;22.82;100.00
45357;BME280;31092;51.924;21.448;2022-08-03T08:17:53;100615.53;;;23.10;100.00
45357;BME280;31092;51.924;21.448;2022-08-03T08:20:26;100633.09;;;23.21;100.00
45357;BME280;31092;51.924;21.448;2022-08-03T08:22:52;100628.78;;;23.25;100.00
45357;BME280;31092;51.924;21.448;2022-08-03T08:25:19;100588.28;;;22.97;100.00
45357;BME280;31092;51.924;21.448;2022-08-03T08:27:46;100628.31;;;23.28;100.00
45357;BME280;31092;51.924;21.448;2022-08-03T08:30:13;100619.22;;;23.27;100.00
45357;BME280;31092;51.924;21.448;2022-08-03T08:32:40;100622.44;;;23.36;100.00
45357;BME280;31092;51.924;21.448;2022-08-03T08:35:07;100597.09;;;23.22;100.00
45357;BME280;31092;51.924;21.448;2022-08-03T08:37:32;100632.09;;;23.50;100.00
45357;BME280;31092;51.924;21.448;2022-08-03T08:39:58;100614.41;;;23.46;100.00
45357;BME280;31092;51.924;21.448;2022-08-03T08:42:24;100625.25;;;23.64;100.00
45357;BME280;31092;51.924;21.448;2022-08-03T08:44:50;100569.34;;;23.47;100.00
45357;BME280;31092;51.924;21.448;2022-08-03T08:47:17;100627.22;;;23.93;100.00
45357;BME280;31092;51.924;21.448;2022-08-03T08:49:44;100635.91;;;24.01;100.00
45357;BME280;31092;51.924;21.448;2022-08-03T08:52:12;100626.13;;;23.94;100.00
45357;BME280;31092;51.924;21.448;2022-08-03T08:54:40;100614.22;;;23.88;100.00
45357;BME280;31092;51.924;21.448;2022-08-03T08:57:06;100591.66;;;23.74;100.00
45357;BME280;31092;51.924;21.448;2022-08-03T08:59:33;100629.34;;;24.02;100.00
45357;BME280;31092;51.924;21.448;2022-08-03T09:02:00;100626.13;;;24.05;100.00
45357;BME280;31092;51.924;21.448;2022-08-03T09:04:28;100646.63;;;24.14;100.00
45357;BME280;31092;51.924;21.448;2022-08-03T09:06:53;100578.69;;;23.86;100.00
45357;BME280;31092;51.924;21.448;2022-08-03T09:09:19;100570.41;;;23.98;100.00
45357;BME280;31092;51.924;21.448;2022-08-03T09:11:47;100582.63;;;24.36;100.00
45357;BME280;31092;51.924;21.448;2022-08-03T09:14:12;100621.66;;;24.95;100.00
45357;BME280;31092;51.924;21.448;2022-08-03T09:16:54;100580.56;;;25.11;100.00
45357;BME280;31092;51.924;21.448;2022-08-03T09:19:20;100580.47;;;25.44;100.00
45357;BME280;31092;51.924;21.448;2022-08-03T09:21:50;100602.72;;;26.03;100.00
45357;BME280;31092;51.924;21.448;2022-08-03T09:24:31;100584.81;;;26.33;100.00
45357;BME280;31092;51.924;21.448;2022-08-03T09:26:57;100563.16;;;26.52;100.00
45357;BME280;31092;51.924;21.448;2022-08-03T09:29:23;100553.13;;;26.73;100.00
45357;BME280;31092;51.924;21.448;2022-08-03T09:31:59;100559.78;;;27.19;100.00
45357;BME280;31092;51.924;21.448;2022-08-03T09:34:25;100599.84;;;27.64;100.00
45357;BME280;31092;51.924;21.448;2022-08-03T09:36:55;100556.31;;;27.44;100.00
45357;BME280;31092;51.924;21.448;2022-08-03T09:39:24;100586.09;;;27.80;100.00
45357;BME280;31092;51.924;21.448;2022-08-03T09:42:05;100595.78;;;27.87;100.00
45357;BME280;31092;51.924;21.448;2022-08-03T09:44:39;100550.84;;;27.65;100.00
45357;BME280;31092;51.924;21.448;2022-08-03T09:47:07;100585.78;;;27.81;100.00
45357;BME280;31092;51.924;21.448;2022-08-03T09:49:34;100594.63;;;27.78;100.00
45357;BME280;31092;51.924;21.448;2022-08-03T09:52:01;100547.44;;;26.95;100.00
45357;BME280;31092;51.924;21.448;2022-08-03T09:54:36;100540.66;;;26.38;100.00
45357;BME280;31092;51.924;21.448;2022-08-03T09:57:01;100588.59;;;26.27;100.00
45357;BME280;31092;51.924;21.448;2022-08-03T09:59:28;100592.34;;;25.89;100.00
45357;BME280;31092;51.924;21.448;2022-08-03T10:01:55;100526.91;;;25.18;100.00
45357;BME280;31092;51.924;21.448;2022-08-03T10:04:22;100587.72;;;25.50;100.00
45357;BME280;31092;51.924;21.448;2022-08-03T10:07:20;100589.09;;;26.19;100.00
45357;BME280;31092;51.924;21.448;2022-08-03T10:10:00;100580.16;;;26.71;100.00
45357;BME280;31092;51.924;21.448;2022-08-03T10:12:27;100530.88;;;27.00;100.00
45357;BME280;31092;51.924;21.448;2022-08-03T10:14:53;100531.19;;;27.61;100.00
45357;BME280;31092;51.924;21.448;2022-08-03T10:17:20;100529.47;;;27.40;100.00
45357;BME280;31092;51.924;21.448;2022-08-03T10:19:47;100529.66;;;26.81;100.00
45357;BME280;31092;51.924;21.448;2022-08-03T10:24:47;100575.63;;;26.27;100.00
45357;BME280;31092;51.924;21.448;2022-08-03T10:27:14;100536.13;;;26.54;100.00
45357;BME280;31092;51.924;21.448;2022-08-03T10:29:44;100505.22;;;27.05;100.00
45357;BME280;31092;51.924;21.448;2022-08-03T10:32:18;100535.09;;;27.65;100.00
45357;BME280;31092;51.924;21.448;2022-08-03T10:34:47;100556.94;;;27.62;100.00
45357;BME280;31092;51.924;21.448;2022-08-03T10:37:16;100551.63;;;27.50;100.00
45357;BME280;31092;51.924;21.448;2022-08-03T10:39:44;100564.94;;;27.63;100.00
45357;BME280;31092;51.924;21.448;2022-08-03T10:42:20;100527.06;;;27.69;100.00
45357;BME280;31092;51.924;21.448;2022-08-03T10:44:49;100570.63;;;28.09;100.00
45357;BME280;31092;51.924;21.448;2022-08-03T10:47:17;100577.84;;;28.05;100.00
45357;BME280;31092;51.924;21.448;2022-08-03T10:49:43;100569.91;;;27.56;100.00
45357;BME280;31092;51.924;21.448;2022-08-03T10:52:10;100574.31;;;27.47;100.00
45357;BME280;31092;51.924;21.448;2022-08-03T10:54:38;100530.91;;;27.63;100.00
45357;BME280;31092;51.924;21.448;2022-08-03T10:57:50;100569.03;;;28.44;100.00
45357;BME280;31092;51.924;21.448;2022-08-03T11:00:21;100556.31;;;28.53;100.00
45357;BME280;31092;51.924;21.448;2022-08-03T11:03:08;100568.47;;;28.37;100.00
45357;BME280;31092;51.924;21.448;2022-08-03T11:05:42;100510.78;;;27.88;100.00
45357;BME280;31092;51.924;21.448;2022-08-03T11:08:29;100504.75;;;28.22;100.00
45357;BME280;31092;51.924;21.448;2022-08-03T11:11:00;100490.38;;;28.40;100.00
45357;BME280;31092;51.924;21.448;2022-08-03T11:13:28;100508.63;;;28.61;100.00
45357;BME280;31092;51.924;21.448;2022-08-03T11:15:58;100545.13;;;29.09;100.00
45357;BME280;31092;51.924;21.448;2022-08-03T11:18:24;100545.06;;;29.30;100.00
45357;BME280;31092;51.924;21.448;2022-08-03T11:20:52;100547.72;;;29.71;100.00
45357;BME280;31092;51.924;21.448;2022-08-03T11:26:24;100552.31;;;29.21;100.00
45357;BME280;31092;51.924;21.448;2022-08-03T11:28:49;100499.97;;;28.94;100.00
45357;BME280;31092;51.924;21.448;2022-08-03T11:34:03;100514.34;;;27.68;100.00
45357;BME280;31092;51.924;21.448;2022-08-03T11:36:29;100555.72;;;27.37;100.00
45357;BME280;31092;51.924;21.448;2022-08-03T11:39:21;100559.84;;;26.87;100.00
45357;BME280;31092;51.924;21.448;2022-08-03T11:41:46;100494.84;;;26.10;100.00
45357;BME280;31092;51.924;21.448;2022-08-03T11:44:48;100559.38;;;26.31;100.00
45357;BME280;31092;51.924;21.448;2022-08-03T11:47:14;100541.69;;;26.59;100.00
45357;BME280;31092;51.924;21.448;2022-08-03T11:49:44;100538.25;;;27.21;100.00
45357;BME280;31092;51.924;21.448;2022-08-03T11:52:11;100473.25;;;27.24;100.00
45357;BME280;31092;51.924;21.448;2022-08-03T11:54:37;100544.66;;;27.42;100.00
45357;BME280;31092;51.924;21.448;2022-08-03T11:57:03;100480.91;;;26.59;100.00
45357;BME280;31092;51.924;21.448;2022-08-03T11:59:32;100543.91;;;26.62;100.00
45357;BME280;31092;51.924;21.448;2022-08-03T12:02:11;100549.53;;;26.40;100.00
45357;BME280;31092;51.924;21.448;2022-08-03T12:04:54;100484.88;;;26.41;100.00
45357;BME280;31092;51.924;21.448;2022-08-03T12:07:26;100488.88;;;27.03;100.00
45357;BME280;31092;51.924;21.448;2022-08-03T12:10:09;100530.66;;;27.69;100.00
45357;BME280;31092;51.924;21.448;2022-08-03T12:12:35;100532.69;;;27.95;100.00
45357;BME280;31092;51.924;21.448;2022-08-03T12:15:02;100475.81;;;27.46;100.00
45357;BME280;31092;51.924;21.448;2022-08-03T12:17:35;100528.34;;;27.36;100.00
45357;BME280;31092;51.924;21.448;2022-08-03T12:20:01;100531.16;;;26.93;100.00
45357;BME280;31092;51.924;21.448;2022-08-03T12:22:35;100471.44;;;26.18;100.00
45357;BME280;31092;51.924;21.448;2022-08-03T12:25:03;100479.09;;;26.06;100.00
45357;BME280;31092;51.924;21.448;2022-08-03T12:27:28;100529.41;;;26.18;100.00
45357;BME280;31092;51.924;21.448;2022-08-03T12:29:55;100476.19;;;25.68;100.00
45357;BME280;31092;51.924;21.448;2022-08-03T12:32:22;100484.44;;;25.63;100.00
45357;BME280;31092;51.924;21.448;2022-08-03T12:34:48;100514.06;;;25.73;100.00
45357;BME280;31092;51.924;21.448;2022-08-03T12:37:21;100539.72;;;25.73;100.00
45357;BME280;31092;51.924;21.448;2022-08-03T12:42:16;100465.97;;;25.37;100.00
45357;BME280;31092;51.924;21.448;2022-08-03T12:44:42;100514.69;;;26.07;100.00
45357;BME280;31092;51.924;21.448;2022-08-03T12:47:07;100511.59;;;26.63;100.00
45357;BME280;31092;51.924;21.448;2022-08-03T12:49:53;100521.59;;;27.16;100.00
45357;BME280;31092;51.924;21.448;2022-08-03T12:52:21;100453.84;;;26.61;100.00
45357;BME280;31092;51.924;21.448;2022-08-03T12:54:57;100511.91;;;26.66;100.00
45357;BME280;31092;51.924;21.448;2022-08-03T12:57:23;100521.06;;;26.40;100.00
45357;BME280;31092;51.924;21.448;2022-08-03T12:59:49;100527.56;;;26.23;100.00
45357;BME280;31092;51.924;21.448;2022-08-03T13:02:16;100443.63;;;25.92;100.00
45357;BME280;31092;51.924;21.448;2022-08-03T13:04:43;100407.94;;;26.18;100.00